createdAt,value
2022-08-22T00:03:31.950Z,100605.28
2022-08-22T00:07:46.482Z,100616.91
2022-08-22T00:11:58.046Z,100618.97
2022-08-22T00:16:09.079Z,100610.09
2022-08-22T00:20:19.987Z,100605.44
2022-08-22T00:24:38.102Z,100598.31
2022-08-22T00:28:45.335Z,100603.91
2022-08-22T00:32:53.986Z,100603.34
2022-08-22T00:37:10.854Z,100603.28
2022-08-22T00:41:31.358Z,100602.09
2022-08-22T00:46:08.700Z,100603.66
2022-08-22T00:50:43.134Z,100602.59
2022-08-22T00:55:00.852Z,100598.56
2022-08-22T00:59:23.518Z,100593.31
2022-08-22T01:03:51.269Z,100593.72
2022-08-22T01:08:15.401Z,100587.72
2022-08-22T01:12:38.767Z,100586.16
2022-08-22T01:17:01.585Z,100581.19
2022-08-22T01:21:50.508Z,100582.50
2022-08-22T01:26:40.516Z,100577.81
2022-08-22T01:31:00.205Z,100575.97
2022-08-22T01:35:27.730Z,100586.03
2022-08-22T01:39:57.206Z,100582.84
2022-08-22T01:44:25.611Z,100591.00
2022-08-22T01:48:37.359Z,100582.88
2022-08-22T01:52:46.208Z,100581.81
2022-08-22T01:56:50.231Z,100589.97
2022-08-22T02:01:04.132Z,100598.50
2022-08-22T02:05:14.657Z,100589.25
2022-08-22T02:09:31.958Z,100587.59
2022-08-22T02:13:50.520Z,100586.84
2022-08-22T02:18:11.119Z,100598.13
2022-08-22T02:22:27.478Z,100586.41
2022-08-22T02:26:49.526Z,100588.31
2022-08-22T02:31:01.245Z,100594.66
2022-08-22T02:35:11.618Z,100595.16
2022-08-22T02:39:22.440Z,100590.72
2022-08-22T02:43:36.347Z,100590.94
2022-08-22T02:47:47.878Z,100591.53
2022-08-22T02:51:59.563Z,100584.13
2022-08-22T02:56:08.601Z,100578.84
2022-08-22T03:00:30.877Z,100574.28
2022-08-22T03:04:53.039Z,100572.59
2022-08-22T03:09:07.754Z,100574.78
2022-08-22T03:13:14.821Z,100577.63
2022-08-22T03:17:24.909Z,100580.72
2022-08-22T03:21:33.803Z,100569.13
2022-08-22T03:25:45.116Z,100575.13
2022-08-22T03:29:51.836Z,100571.16
2022-08-22T03:34:18.963Z,100570.16
2022-08-22T03:38:28.639Z,100569.47
2022-08-22T03:43:03.991Z,100566.47
2022-08-22T03:47:33.168Z,100573.19
2022-08-22T03:52:03.462Z,100568.84
2022-08-22T03:56:45.025Z,100569.09
2022-08-22T04:01:31.683Z,100566.41
2022-08-22T04:05:55.399Z,100556.56
2022-08-22T04:10:21.031Z,100557.50
2022-08-22T04:15:01.015Z,100556.44
2022-08-22T04:19:30.535Z,100557.22
2022-08-22T04:24:03.215Z,100563.91
2022-08-22T04:28:18.406Z,100566.50
2022-08-22T04:32:28.080Z,100570.31
2022-08-22T04:36:37.328Z,100569.31
2022-08-22T04:40:45.036Z,100575.53
2022-08-22T04:44:57.822Z,100565.66
2022-08-22T04:49:06.531Z,100571.72
2022-08-22T04:53:19.713Z,100578.63
2022-08-22T04:57:32.551Z,100585.22
2022-08-22T05:01:46.386Z,100590.44
2022-08-22T05:05:51.016Z,100586.06
2022-08-22T05:10:00.284Z,100583.94
2022-08-22T05:14:18.232Z,100582.41
2022-08-22T05:18:29.721Z,100575.78
2022-08-22T05:22:36.670Z,100581.66
2022-08-22T05:26:44.327Z,100593.06
2022-08-22T05:30:49.639Z,100594.75
2022-08-22T05:34:59.403Z,100599.06
2022-08-22T05:39:06.328Z,100591.28
2022-08-22T05:43:12.827Z,100593.94
2022-08-22T05:47:23.489Z,100596.22
2022-08-22T05:51:35.989Z,100598.94
2022-08-22T05:55:51.619Z,100598.91
2022-08-22T06:00:03.247Z,100596.78
2022-08-22T06:04:25.260Z,100593.00
2022-08-22T06:08:35.928Z,100589.53
2022-08-22T06:12:43.678Z,100596.31
2022-08-22T06:16:52.338Z,100591.44
2022-08-22T06:20:59.871Z,100588.28
2022-08-22T15:38:38.529Z,100291.31
2022-08-22T15:42:48.328Z,100288.03
2022-08-22T15:47:00.431Z,100287.19
2022-08-22T15:51:09.239Z,100296.00
2022-08-22T15:55:34.456Z,100295.44
2022-08-22T15:59:53.350Z,100294.47
2022-08-22T16:04:03.181Z,100291.16
2022-08-22T16:08:08.362Z,100286.28
2022-08-22T16:12:26.885Z,100283.56
2022-08-22T16:16:54.648Z,100291.50
2022-08-22T16:20:59.216Z,100284.31
2022-08-22T16:25:10.716Z,100282.69
2022-08-22T16:29:35.555Z,100279.34
2022-08-22T16:33:45.504Z,100283.25
2022-08-22T16:37:50.966Z,100281.28
2022-08-22T16:42:18.508Z,100281.03
2022-08-22T16:46:33.312Z,100276.72
2022-08-22T16:50:41.794Z,100277.94
2022-08-22T16:54:47.538Z,100270.09
2022-08-22T16:59:22.837Z,100271.44
2022-08-22T17:03:36.933Z,100267.78
2022-08-22T17:07:58.892Z,100264.09
2022-08-22T17:12:17.542Z,100255.59
2022-08-22T17:16:37.241Z,100262.34
2022-08-22T17:20:49.125Z,100265.34
2022-08-22T17:25:04.735Z,100265.69
2022-08-22T17:29:16.102Z,100263.31
2022-08-22T17:33:35.722Z,100264.34
2022-08-22T17:37:47.638Z,100262.94
2022-08-22T17:41:58.401Z,100258.53
2022-08-22T17:46:34.245Z,100264.50
2022-08-22T17:50:43.603Z,100260.47
2022-08-22T17:54:53.714Z,100264.44
2022-08-22T17:59:03.067Z,100266.41
2022-08-22T18:03:10.009Z,100261.44
2022-08-22T18:07:34.439Z,100269.75
2022-08-22T18:11:45.867Z,100265.06
2022-08-22T18:15:55.903Z,100278.06
2022-08-22T18:20:05.400Z,100267.09
2022-08-22T18:24:21.360Z,100275.34
2022-08-22T18:28:33.608Z,100270.47
2022-08-22T18:32:52.433Z,100270.06
2022-08-22T18:37:00.634Z,100282.88
2022-08-22T18:41:13.239Z,100278.50
2022-08-22T18:45:20.761Z,100274.13
2022-08-22T18:49:48.407Z,100283.25
2022-08-22T18:53:55.335Z,100286.09
2022-08-22T18:58:19.227Z,100289.75
2022-08-22T19:02:55.791Z,100281.25
2022-08-22T19:07:26.609Z,100283.69
2022-08-22T19:11:50.861Z,100294.34
2022-08-22T19:16:07.444Z,100293.66
2022-08-22T19:20:41.003Z,100305.00
2022-08-22T19:30:06.781Z,100308.59
2022-08-22T19:34:17.424Z,100310.13
